Language selection

My Weather Profile Weather Topics  | 

Atlantic - Labrador: Past 24 Hour Conditions

 

Hopedale

11:00 AM AST 01 February 2023
Disclaimer

This table is a summary of hourly weather conditions for the past 24 hours.
Please note that these observations might not always be representative of weather conditions over their associated marine area.

Date / Time
(AST)
Wind(knots) Conditions Visibility(km) Pressure(kPa) Air tempC) Relative humidity(%) Dew pointC)
01 February 2023
11:00 N/A N/A N/A 101.3 -25 53 -31
10:00 N/A N/A N/A 101.3 -25 56 -32
9:00 N/A N/A N/A 101.2 -27 59 -33
8:00 N/A N/A N/A 101.2 -28 60 -34
7:00 N/A N/A N/A 101.2 -28 58 -33
6:00 N/A N/A N/A 101.2 -29 61 -34
5:00 N/A N/A N/A 101.3 -29 63 -33
4:00 N/A N/A N/A 101.3 -30 65 -34
3:00 N/A N/A N/A 101.3 -27 62 -32
2:00 N/A N/A N/A 101.4 -29 64 -34
1:00 N/A N/A N/A 101.4 -29 66 -33
0:00 N/A N/A N/A 101.5 -29 59 -34
31 January 2023
23:00 N/A N/A N/A 101.5 -27 58 -33
22:00 N/A N/A N/A 101.5 -27 59 -33
21:00 N/A N/A N/A 101.6 -27 59 -33
20:00 N/A N/A N/A 101.6 -27 57 -33
19:00 N/A N/A N/A 101.6 -26 56 -32
18:00 N/A N/A N/A 101.7 -27 58 -32
17:00 N/A N/A N/A 101.7 -27 58 -33
16:00 N/A N/A N/A 101.8 -25 53 -32
15:00 N/A N/A N/A 101.8 -23 47 -31
14:00 N/A N/A N/A 101.8 -24 50 -31
13:00 N/A N/A N/A 101.8 -25 50 -32
12:00 N/A N/A N/A 101.9 -25 55 -32
11:00 N/A N/A N/A 101.9 -26 58 -32

Zoom-in to make a selection

Map of Atlantic - Labrador marine weather areas Kangiqsualujjuaq Airport Cape Kakkiviak Cape Kiglapait Cartwright Airport CFB Goose Bay Hopedale Mary's Harbour Nain Airport Makkovik Airport Saglek Tukialik Bay
Legend:
buoy Buoy
land station Land Station

Atlantic - Labrador Area

Another Region

What we are doing

Date modified: